sensor_id;sensor_type;location;lat;lon;timestamp;pressure;altitude;pressure_sealevel;temperature;humidity
61961;BME280;47923;42.506;24.192;2023-12-28T00:01:23;96534.84;;;-1.59;80.17
61961;BME280;47923;42.506;24.192;2023-12-28T00:03:49;96479.75;;;-1.95;80.17
61961;BME280;47923;42.506;24.192;2023-12-28T00:06:15;96613.38;;;-1.11;80.50
61961;BME280;47923;42.506;24.192;2023-12-28T00:08:41;96553.88;;;-1.68;80.23
61961;BME280;47923;42.506;24.192;2023-12-28T00:11:07;96515.31;;;-1.85;80.30
61961;BME280;47923;42.506;24.192;2023-12-28T00:13:32;96590.19;;;-1.31;80.58
61961;BME280;47923;42.506;24.192;2023-12-28T00:15:58;96571.22;;;-1.50;80.90
61961;BME280;47923;42.506;24.192;2023-12-28T00:18:23;96624.72;;;-1.21;81.13
61961;BME280;47923;42.506;24.192;2023-12-28T00:20:49;96595.91;;;-1.44;81.26
61961;BME280;47923;42.506;24.192;2023-12-28T00:23:15;96662.38;;;-1.24;80.68
61961;BME280;47923;42.506;24.192;2023-12-28T00:25:40;96402.16;;;-2.91;80.45
61961;BME280;47923;42.506;24.192;2023-12-28T00:28:06;96635.22;;;-1.36;81.04
61961;BME280;47923;42.506;24.192;2023-12-28T00:30:31;96471.88;;;-2.48;80.95
61961;BME280;47923;42.506;24.192;2023-12-28T00:32:57;96641.31;;;-1.35;81.23
61961;BME280;47923;42.506;24.192;2023-12-28T00:35:23;96584.81;;;-1.73;81.04
61961;BME280;47923;42.506;24.192;2023-12-28T00:37:48;96641.25;;;-1.41;81.14
61961;BME280;47923;42.506;24.192;2023-12-28T00:40:14;96632.78;;;-1.43;81.28
61961;BME280;47923;42.506;24.192;2023-12-28T00:42:39;96635.97;;;-1.41;81.10
61961;BME280;47923;42.506;24.192;2023-12-28T00:45:07;96641.78;;;-1.44;81.16
61961;BME280;47923;42.506;24.192;2023-12-28T00:47:32;96559.72;;;-1.98;81.38
61961;BME280;47923;42.506;24.192;2023-12-28T00:49:58;96635.38;;;-1.48;80.61
61961;BME280;47923;42.506;24.192;2023-12-28T00:52:23;96647.34;;;-1.45;80.40
61961;BME280;47923;42.506;24.192;2023-12-28T00:54:48;96528.81;;;-2.14;80.40
61961;BME280;47923;42.506;24.192;2023-12-28T00:57:14;96438.81;;;-2.73;80.69
61961;BME280;47923;42.506;24.192;2023-12-28T00:59:39;96632.94;;;-1.54;80.47
61961;BME280;47923;42.506;24.192;2023-12-28T01:02:05;96620.41;;;-1.64;80.21
61961;BME280;47923;42.506;24.192;2023-12-28T01:04:30;96589.28;;;-1.79;80.29
61961;BME280;47923;42.506;24.192;2023-12-28T01:06:55;96613.75;;;-1.67;80.85
61961;BME280;47923;42.506;24.192;2023-12-28T01:09:21;96493.66;;;-2.41;80.91
61961;BME280;47923;42.506;24.192;2023-12-28T01:11:46;96637.28;;;-1.70;80.76
61961;BME280;47923;42.506;24.192;2023-12-28T01:14:12;96656.50;;;-1.58;81.10
61961;BME280;47923;42.506;24.192;2023-12-28T01:16:37;96653.31;;;-1.60;81.08
61961;BME280;47923;42.506;24.192;2023-12-28T01:19:05;96590.44;;;-1.97;80.93
61961;BME280;47923;42.506;24.192;2023-12-28T01:21:30;96662.53;;;-1.62;80.56
61961;BME280;47923;42.506;24.192;2023-12-28T01:23:56;96577.00;;;-2.17;80.67
61961;BME280;47923;42.506;24.192;2023-12-28T01:26:21;96604.50;;;-1.96;81.10
61961;BME280;47923;42.506;24.192;2023-12-28T01:28:47;96669.50;;;-1.56;81.08
61961;BME280;47923;42.506;24.192;2023-12-28T01:31:12;96624.75;;;-1.80;81.51
61961;BME280;47923;42.506;24.192;2023-12-28T01:33:37;96634.03;;;-1.82;81.35
61961;BME280;47923;42.506;24.192;2023-12-28T01:36:15;96610.25;;;-1.99;81.62
61961;BME280;47923;42.506;24.192;2023-12-28T01:38:41;96522.91;;;-2.53;81.72
61961;BME280;47923;42.506;24.192;2023-12-28T01:41:06;96613.16;;;-2.01;81.34
61961;BME280;47923;42.506;24.192;2023-12-28T01:43:31;96517.00;;;-2.60;81.58
61961;BME280;47923;42.506;24.192;2023-12-28T01:45:57;96662.91;;;-1.81;80.91
61961;BME280;47923;42.506;24.192;2023-12-28T01:48:22;96555.53;;;-2.42;81.27
61961;BME280;47923;42.506;24.192;2023-12-28T01:50:48;96416.72;;;-3.16;81.03
61961;BME280;47923;42.506;24.192;2023-12-28T01:53:13;96619.31;;;-1.95;81.32
61961;BME280;47923;42.506;24.192;2023-12-28T01:55:39;96643.84;;;-1.78;81.13
61961;BME280;47923;42.506;24.192;2023-12-28T01:58:04;96462.13;;;-2.97;81.44
61961;BME280;47923;42.506;24.192;2023-12-28T02:00:30;96577.94;;;-2.28;81.51
61961;BME280;47923;42.506;24.192;2023-12-28T02:02:57;96490.81;;;-2.84;81.27
61961;BME280;47923;42.506;24.192;2023-12-28T02:05:23;96472.34;;;-3.06;81.22
61961;BME280;47923;42.506;24.192;2023-12-28T02:07:48;96597.63;;;-2.19;81.50
61961;BME280;47923;42.506;24.192;2023-12-28T02:10:14;96649.81;;;-1.92;80.90
61961;BME280;47923;42.506;24.192;2023-12-28T02:12:39;96649.81;;;-1.92;80.91
61961;BME280;47923;42.506;24.192;2023-12-28T02:15:05;96550.41;;;-2.54;81.34
61961;BME280;47923;42.506;24.192;2023-12-28T02:17:38;96642.84;;;-1.99;81.83
61961;BME280;47923;42.506;24.192;2023-12-28T02:20:08;96622.25;;;-2.18;81.83
61961;BME280;47923;42.506;24.192;2023-12-28T02:22:34;96653.66;;;-2.05;82.16
61961;BME280;47923;42.506;24.192;2023-12-28T02:25:12;96648.84;;;-2.08;82.20
61961;BME280;47923;42.506;24.192;2023-12-28T02:27:45;96588.06;;;-2.47;82.87
61961;BME280;47923;42.506;24.192;2023-12-28T02:30:12;96644.41;;;-2.03;82.13
61961;BME280;47923;42.506;24.192;2023-12-28T02:35:17;96643.09;;;-2.00;82.06
61961;BME280;47923;42.506;24.192;2023-12-28T02:37:44;96641.75;;;-2.03;82.33
61961;BME280;47923;42.506;24.192;2023-12-28T02:40:13;96587.00;;;-2.46;82.11
61961;BME280;47923;42.506;24.192;2023-12-28T02:42:40;96625.34;;;-2.27;82.76
61961;BME280;47923;42.506;24.192;2023-12-28T02:45:06;96641.81;;;-1.98;82.55
61961;BME280;47923;42.506;24.192;2023-12-28T02:47:31;96618.56;;;-2.17;82.94
61961;BME280;47923;42.506;24.192;2023-12-28T02:49:57;96673.81;;;-1.99;82.79
61961;BME280;47923;42.506;24.192;2023-12-28T02:52:24;96665.28;;;-2.06;82.96
61961;BME280;47923;42.506;24.192;2023-12-28T02:54:50;96556.00;;;-2.72;83.11
61961;BME280;47923;42.506;24.192;2023-12-28T02:57:15;96605.41;;;-2.34;83.42
61961;BME280;47923;42.506;24.192;2023-12-28T02:59:44;96485.72;;;-3.12;83.43
61961;BME280;47923;42.506;24.192;2023-12-28T03:02:10;96642.66;;;-2.19;83.50
61961;BME280;47923;42.506;24.192;2023-12-28T03:04:35;96649.72;;;-2.25;83.41
61961;BME280;47923;42.506;24.192;2023-12-28T03:07:00;96650.78;;;-2.26;83.22
61961;BME280;47923;42.506;24.192;2023-12-28T03:09:26;96612.13;;;-2.48;83.23
61961;BME280;47923;42.506;24.192;2023-12-28T03:11:52;96647.00;;;-2.30;83.38
61961;BME280;47923;42.506;24.192;2023-12-28T03:14:17;96581.66;;;-2.73;83.34
61961;BME280;47923;42.506;24.192;2023-12-28T03:16:43;96649.03;;;-2.37;83.56
61961;BME280;47923;42.506;24.192;2023-12-28T03:19:08;96578.41;;;-2.80;84.11
61961;BME280;47923;42.506;24.192;2023-12-28T03:21:38;96579.28;;;-2.74;83.78
61961;BME280;47923;42.506;24.192;2023-12-28T03:24:04;96547.28;;;-2.95;83.80
61961;BME280;47923;42.506;24.192;2023-12-28T03:26:29;96605.44;;;-2.56;83.90
61961;BME280;47923;42.506;24.192;2023-12-28T03:28:55;96595.47;;;-2.71;83.62
61961;BME280;47923;42.506;24.192;2023-12-28T03:31:20;96647.69;;;-2.39;83.74
61961;BME280;47923;42.506;24.192;2023-12-28T03:33:46;96471.25;;;-3.48;83.71
61961;BME280;47923;42.506;24.192;2023-12-28T03:36:20;96646.56;;;-2.43;83.97
61961;BME280;47923;42.506;24.192;2023-12-28T03:38:46;96449.00;;;-3.74;83.95
61961;BME280;47923;42.506;24.192;2023-12-28T03:41:18;96635.38;;;-2.51;83.88
61961;BME280;47923;42.506;24.192;2023-12-28T03:43:45;96466.56;;;-3.63;83.61
61961;BME280;47923;42.506;24.192;2023-12-28T03:46:11;96647.81;;;-2.51;83.11
61961;BME280;47923;42.506;24.192;2023-12-28T03:48:36;96569.66;;;-3.02;82.77
61961;BME280;47923;42.506;24.192;2023-12-28T03:51:03;96610.22;;;-2.75;82.79
61961;BME280;47923;42.506;24.192;2023-12-28T03:53:28;96607.56;;;-2.75;82.33
61961;BME280;47923;42.506;24.192;2023-12-28T03:55:54;96480.09;;;-3.59;82.40
61961;BME280;47923;42.506;24.192;2023-12-28T03:58:19;96518.47;;;-3.35;82.41
61961;BME280;47923;42.506;24.192;2023-12-28T04:00:44;96594.94;;;-2.90;83.01
61961;BME280;47923;42.506;24.192;2023-12-28T04:03:10;96569.69;;;-3.19;83.39
61961;BME280;47923;42.506;24.192;2023-12-28T04:05:35;96554.34;;;-3.22;83.38
61961;BME280;47923;42.506;24.192;2023-12-28T04:08:01;96655.94;;;-2.58;83.96
61961;BME280;47923;42.506;24.192;2023-12-28T04:10:31;96627.13;;;-2.76;83.73
61961;BME280;47923;42.506;24.192;2023-12-28T04:12:57;96659.69;;;-2.54;84.00
61961;BME280;47923;42.506;24.192;2023-12-28T04:15:23;96635.16;;;-2.71;84.11
61961;BME280;47923;42.506;24.192;2023-12-28T04:17:49;96634.75;;;-2.80;84.21
61961;BME280;47923;42.506;24.192;2023-12-28T04:20:15;96661.16;;;-2.63;84.05
61961;BME280;47923;42.506;24.192;2023-12-28T04:22:40;96672.00;;;-2.64;84.08
61961;BME280;47923;42.506;24.192;2023-12-28T04:25:11;96633.56;;;-2.89;84.08
61961;BME280;47923;42.506;24.192;2023-12-28T04:27:38;96658.69;;;-2.69;83.65
61961;BME280;47923;42.506;24.192;2023-12-28T04:30:04;96569.72;;;-3.36;83.05
61961;BME280;47923;42.506;24.192;2023-12-28T04:32:33;96661.66;;;-2.66;83.73
61961;BME280;47923;42.506;24.192;2023-12-28T04:34:58;96601.25;;;-3.13;83.74
61961;BME280;47923;42.506;24.192;2023-12-28T04:37:24;96536.25;;;-3.47;83.78
61961;BME280;47923;42.506;24.192;2023-12-28T04:39:52;96667.19;;;-2.67;83.91
61961;BME280;47923;42.506;24.192;2023-12-28T04:42:18;96667.00;;;-2.61;84.50
61961;BME280;47923;42.506;24.192;2023-12-28T04:44:44;96663.03;;;-2.63;85.10
61961;BME280;47923;42.506;24.192;2023-12-28T04:47:09;96408.88;;;-4.27;84.43
61961;BME280;47923;42.506;24.192;2023-12-28T04:49:34;96555.09;;;-3.44;84.98
61961;BME280;47923;42.506;24.192;2023-12-28T04:52:00;96662.81;;;-2.79;84.58
61961;BME280;47923;42.506;24.192;2023-12-28T04:54:25;96639.09;;;-2.90;84.47
61961;BME280;47923;42.506;24.192;2023-12-28T04:56:51;96656.53;;;-2.72;84.53
61961;BME280;47923;42.506;24.192;2023-12-28T04:59:16;96542.81;;;-3.33;84.41
61961;BME280;47923;42.506;24.192;2023-12-28T05:01:42;96594.50;;;-3.03;84.18
61961;BME280;47923;42.506;24.192;2023-12-28T05:04:08;96575.66;;;-3.29;84.53
61961;BME280;47923;42.506;24.192;2023-12-28T05:06:33;96592.44;;;-3.18;84.33
61961;BME280;47923;42.506;24.192;2023-12-28T05:08:59;96646.69;;;-2.77;85.02
61961;BME280;47923;42.506;24.192;2023-12-28T05:11:25;96465.09;;;-3.93;85.17
61961;BME280;47923;42.506;24.192;2023-12-28T05:13:50;96673.34;;;-2.62;85.23
61961;BME280;47923;42.506;24.192;2023-12-28T05:16:16;96655.09;;;-2.63;85.16
61961;BME280;47923;42.506;24.192;2023-12-28T05:18:41;96464.63;;;-4.06;85.21
61961;BME280;47923;42.506;24.192;2023-12-28T05:21:07;96662.75;;;-2.84;85.24
61961;BME280;47923;42.506;24.192;2023-12-28T05:23:32;96570.16;;;-3.44;85.50
61961;BME280;47923;42.506;24.192;2023-12-28T05:25:57;96719.88;;;-2.83;85.60
61961;BME280;47923;42.506;24.192;2023-12-28T05:28:23;96683.56;;;-2.87;85.56
61961;BME280;47923;42.506;24.192;2023-12-28T05:30:48;96624.50;;;-3.15;85.63
61961;BME280;47923;42.506;24.192;2023-12-28T05:33:14;96555.59;;;-3.64;85.59
61961;BME280;47923;42.506;24.192;2023-12-28T05:35:39;96665.00;;;-2.92;85.26
61961;BME280;47923;42.506;24.192;2023-12-28T05:38:04;96550.22;;;-3.69;85.62
61961;BME280;47923;42.506;24.192;2023-12-28T05:40:30;96636.56;;;-3.19;85.55
61961;BME280;47923;42.506;24.192;2023-12-28T05:42:55;96662.19;;;-2.86;85.20
61961;BME280;47923;42.506;24.192;2023-12-28T05:45:21;96669.88;;;-2.84;85.45
61961;BME280;47923;42.506;24.192;2023-12-28T05:47:46;96408.09;;;-4.44;84.71
61961;BME280;47923;42.506;24.192;2023-12-28T05:50:12;96639.53;;;-2.98;84.95
61961;BME280;47923;42.506;24.192;2023-12-28T05:52:37;96575.34;;;-3.49;85.17
61961;BME280;47923;42.506;24.192;2023-12-28T05:55:03;96601.84;;;-3.27;85.32
61961;BME280;47923;42.506;24.192;2023-12-28T05:57:29;96667.69;;;-2.70;85.12
61961;BME280;47923;42.506;24.192;2023-12-28T05:59:56;96575.16;;;-3.26;85.15
61961;BME280;47923;42.506;24.192;2023-12-28T06:02:22;96678.31;;;-2.65;84.91
61961;BME280;47923;42.506;24.192;2023-12-28T06:04:48;96635.41;;;-2.89;84.85
61961;BME280;47923;42.506;24.192;2023-12-28T06:07:13;96674.16;;;-2.61;84.79
61961;BME280;47923;42.506;24.192;2023-12-28T06:09:38;96501.72;;;-3.63;84.78
61961;BME280;47923;42.506;24.192;2023-12-28T06:12:05;96611.59;;;-2.89;84.57
61961;BME280;47923;42.506;24.192;2023-12-28T06:14:31;96651.56;;;-2.69;84.31
61961;BME280;47923;42.506;24.192;2023-12-28T06:16:56;96472.59;;;-3.84;84.21
61961;BME280;47923;42.506;24.192;2023-12-28T06:19:21;96647.50;;;-2.76;84.61
61961;BME280;47923;42.506;24.192;2023-12-28T06:21:50;96455.59;;;-3.94;84.40
61961;BME280;47923;42.506;24.192;2023-12-28T06:24:16;96567.69;;;-3.12;84.52
61961;BME280;47923;42.506;24.192;2023-12-28T06:26:42;96707.41;;;-2.27;84.44
61961;BME280;47923;42.506;24.192;2023-12-28T06:29:08;96480.16;;;-3.54;83.70
61961;BME280;47923;42.506;24.192;2023-12-28T06:31:35;96686.41;;;-2.11;83.44
61961;BME280;47923;42.506;24.192;2023-12-28T06:34:04;96636.94;;;-2.33;82.90
61961;BME280;47923;42.506;24.192;2023-12-28T06:36:31;96631.19;;;-2.25;82.47
61961;BME280;47923;42.506;24.192;2023-12-28T06:38:57;96656.16;;;-1.93;81.99
61961;BME280;47923;42.506;24.192;2023-12-28T06:41:24;96693.84;;;-1.59;82.12
61961;BME280;47923;42.506;24.192;2023-12-28T06:43:49;96504.28;;;-2.63;81.35
61961;BME280;47923;42.506;24.192;2023-12-28T06:46:15;96680.88;;;-1.29;81.22
61961;BME280;47923;42.506;24.192;2023-12-28T06:48:41;96693.72;;;-1.11;81.13
61961;BME280;47923;42.506;24.192;2023-12-28T06:51:06;96669.69;;;-0.99;80.52
61961;BME280;47923;42.506;24.192;2023-12-28T06:53:32;96684.44;;;-0.29;80.79
61961;BME280;47923;42.506;24.192;2023-12-28T06:56:00;96676.03;;;1.78;73.77
61961;BME280;47923;42.506;24.192;2023-12-28T06:58:25;96674.84;;;3.99;62.32
61961;BME280;47923;42.506;24.192;2023-12-28T07:00:51;96537.38;;;4.70;53.91
61961;BME280;47923;42.506;24.192;2023-12-28T07:03:16;96456.56;;;4.68;50.42
61961;BME280;47923;42.506;24.192;2023-12-28T07:05:42;96666.34;;;5.98;49.89
61961;BME280;47923;42.506;24.192;2023-12-28T07:08:07;96523.06;;;4.10;52.18
61961;BME280;47923;42.506;24.192;2023-12-28T07:10:33;96636.72;;;4.12;55.70
61961;BME280;47923;42.506;24.192;2023-12-28T07:12:58;96667.34;;;4.01;57.58
61961;BME280;47923;42.506;24.192;2023-12-28T07:15:23;96676.44;;;3.52;58.98
61961;BME280;47923;42.506;24.192;2023-12-28T07:17:50;96652.97;;;3.20;61.32
61961;BME280;47923;42.506;24.192;2023-12-28T07:20:15;96575.00;;;4.60;55.94
61961;BME280;47923;42.506;24.192;2023-12-28T07:22:41;96673.31;;;7.52;49.00
61961;BME280;47923;42.506;24.192;2023-12-28T07:25:06;96671.47;;;9.19;44.60
61961;BME280;47923;42.506;24.192;2023-12-28T07:27:35;96614.06;;;9.65;40.97
61961;BME280;47923;42.506;24.192;2023-12-28T07:30:02;96648.59;;;10.90;39.89
61961;BME280;47923;42.506;24.192;2023-12-28T07:32:31;96666.78;;;11.68;38.85
61961;BME280;47923;42.506;24.192;2023-12-28T07:34:56;96623.06;;;12.27;37.39
61961;BME280;47923;42.506;24.192;2023-12-28T07:37:22;96672.38;;;13.09;35.86
61961;BME280;47923;42.506;24.192;2023-12-28T07:39:47;96645.84;;;13.31;35.06
61961;BME280;47923;42.506;24.192;2023-12-28T07:42:13;96672.22;;;13.18;34.92
61961;BME280;47923;42.506;24.192;2023-12-28T07:44:39;96549.25;;;12.17;35.38
61961;BME280;47923;42.506;24.192;2023-12-28T07:47:04;96576.28;;;12.82;36.17
61961;BME280;47923;42.506;24.192;2023-12-28T07:49:30;96662.19;;;14.41;33.26
61961;BME280;47923;42.506;24.192;2023-12-28T07:51:56;96628.75;;;14.91;33.32
61961;BME280;47923;42.506;24.192;2023-12-28T07:54:22;96619.00;;;14.90;31.66
61961;BME280;47923;42.506;24.192;2023-12-28T07:56:47;96657.94;;;15.72;32.87
61961;BME280;47923;42.506;24.192;2023-12-28T07:59:13;96673.25;;;16.26;30.45
61961;BME280;47923;42.506;24.192;2023-12-28T08:01:38;96654.22;;;16.29;30.51
61961;BME280;47923;42.506;24.192;2023-12-28T08:04:04;96647.69;;;16.38;29.32
61961;BME280;47923;42.506;24.192;2023-12-28T08:06:29;96650.50;;;15.30;30.69
61961;BME280;47923;42.506;24.192;2023-12-28T08:08:58;96556.72;;;14.66;30.75
61961;BME280;47923;42.506;24.192;2023-12-28T08:11:29;96621.66;;;14.87;31.68
61961;BME280;47923;42.506;24.192;2023-12-28T08:13:54;96643.34;;;15.03;31.30
61961;BME280;47923;42.506;24.192;2023-12-28T08:16:20;96669.50;;;15.07;31.46
61961;BME280;47923;42.506;24.192;2023-12-28T08:18:45;96632.03;;;15.01;32.07
61961;BME280;47923;42.506;24.192;2023-12-28T08:21:11;96674.09;;;15.23;31.73
61961;BME280;47923;42.506;24.192;2023-12-28T08:23:36;96642.34;;;14.91;31.99
61961;BME280;47923;42.506;24.192;2023-12-28T08:26:02;96480.28;;;13.97;31.83
61961;BME280;47923;42.506;24.192;2023-12-28T08:28:28;96630.84;;;15.40;31.53
61961;BME280;47923;42.506;24.192;2023-12-28T08:30:53;96632.16;;;15.66;30.43
61961;BME280;47923;42.506;24.192;2023-12-28T08:33:19;96642.25;;;16.64;29.79
61961;BME280;47923;42.506;24.192;2023-12-28T08:35:45;96603.81;;;16.20;30.75
61961;BME280;47923;42.506;24.192;2023-12-28T08:38:11;96645.97;;;16.75;29.62
61961;BME280;47923;42.506;24.192;2023-12-28T08:40:36;96635.47;;;16.77;29.18
61961;BME280;47923;42.506;24.192;2023-12-28T08:43:01;96547.44;;;16.01;29.97
61961;BME280;47923;42.506;24.192;2023-12-28T08:45:27;96653.75;;;16.24;31.13
61961;BME280;47923;42.506;24.192;2023-12-28T08:47:52;96651.22;;;16.65;31.33
61961;BME280;47923;42.506;24.192;2023-12-28T08:50:17;96631.88;;;17.37;30.91
61961;BME280;47923;42.506;24.192;2023-12-28T08:52:43;96598.22;;;18.07;28.99
61961;BME280;47923;42.506;24.192;2023-12-28T08:55:09;96591.16;;;18.06;29.61
61961;BME280;47923;42.506;24.192;2023-12-28T08:57:35;96639.97;;;18.01;30.55
61961;BME280;47923;42.506;24.192;2023-12-28T09:00:00;96639.53;;;18.46;29.00
61961;BME280;47923;42.506;24.192;2023-12-28T09:02:28;96562.09;;;18.42;29.46
61961;BME280;47923;42.506;24.192;2023-12-28T09:04:54;96563.28;;;18.41;28.21
61961;BME280;47923;42.506;24.192;2023-12-28T09:07:19;96524.94;;;17.72;28.98
61961;BME280;47923;42.506;24.192;2023-12-28T09:09:45;96621.47;;;18.31;28.96
61961;BME280;47923;42.506;24.192;2023-12-28T09:12:11;96574.81;;;17.69;28.94
61961;BME280;47923;42.506;24.192;2023-12-28T09:14:36;96458.13;;;17.22;28.91
61961;BME280;47923;42.506;24.192;2023-12-28T09:17:01;96581.66;;;17.86;28.83
61961;BME280;47923;42.506;24.192;2023-12-28T09:19:27;96561.72;;;17.45;29.91
61961;BME280;47923;42.506;24.192;2023-12-28T09:21:52;96530.84;;;17.78;29.67
61961;BME280;47923;42.506;24.192;2023-12-28T09:24:18;96572.13;;;18.86;27.92
61961;BME280;47923;42.506;24.192;2023-12-28T09:26:43;96585.63;;;19.41;27.91
61961;BME280;47923;42.506;24.192;2023-12-28T09:29:09;96557.09;;;19.60;28.48
61961;BME280;47923;42.506;24.192;2023-12-28T09:31:34;96533.59;;;19.66;27.24
61961;BME280;47923;42.506;24.192;2023-12-28T09:34:00;96484.22;;;19.38;27.30
61961;BME280;47923;42.506;24.192;2023-12-28T09:36:25;96504.22;;;19.59;26.91
61961;BME280;47923;42.506;24.192;2023-12-28T09:38:51;96391.41;;;18.72;27.53
61961;BME280;47923;42.506;24.192;2023-12-28T09:41:16;96558.28;;;20.02;27.23
61961;BME280;47923;42.506;24.192;2023-12-28T09:44:07;96543.78;;;20.01;27.67
61961;BME280;47923;42.506;24.192;2023-12-28T09:46:34;96539.78;;;20.59;27.58
61961;BME280;47923;42.506;24.192;2023-12-28T09:49:00;96533.34;;;20.98;26.10
61961;BME280;47923;42.506;24.192;2023-12-28T09:51:26;96518.84;;;20.97;25.14
61961;BME280;47923;42.506;24.192;2023-12-28T09:53:52;96526.09;;;20.52;26.07
61961;BME280;47923;42.506;24.192;2023-12-28T09:56:18;96501.41;;;20.31;26.02
61961;BME280;47923;42.506;24.192;2023-12-28T09:58:44;96523.34;;;20.38;25.80
61961;BME280;47923;42.506;24.192;2023-12-28T10:01:14;96525.31;;;20.27;26.11
61961;BME280;47923;42.506;24.192;2023-12-28T10:03:39;96523.28;;;20.63;25.24
61961;BME280;47923;42.506;24.192;2023-12-28T10:06:05;96523.59;;;20.90;26.60
61961;BME280;47923;42.506;24.192;2023-12-28T10:08:30;96488.19;;;21.10;24.37
61961;BME280;47923;42.506;24.192;2023-12-28T10:10:56;96510.47;;;21.82;24.33
61961;BME280;47923;42.506;24.192;2023-12-28T10:13:25;96496.22;;;22.35;23.36
61961;BME280;47923;42.506;24.192;2023-12-28T10:15:50;96481.47;;;22.18;23.33
61961;BME280;47923;42.506;24.192;2023-12-28T10:18:19;96490.09;;;22.20;24.32
61961;BME280;47923;42.506;24.192;2023-12-28T10:20:50;96486.31;;;22.41;23.74
61961;BME280;47923;42.506;24.192;2023-12-28T10:23:16;96358.22;;;21.16;24.23
61961;BME280;47923;42.506;24.192;2023-12-28T10:25:42;96477.84;;;22.25;23.18
61961;BME280;47923;42.506;24.192;2023-12-28T10:28:08;96453.13;;;22.18;24.00
61961;BME280;47923;42.506;24.192;2023-12-28T10:30:35;96405.56;;;22.17;23.43
61961;BME280;47923;42.506;24.192;2023-12-28T10:33:00;96424.97;;;22.71;23.27
61961;BME280;47923;42.506;24.192;2023-12-28T10:35:26;96460.59;;;22.55;21.82
61961;BME280;47923;42.506;24.192;2023-12-28T10:37:52;96455.06;;;21.83;22.56
61961;BME280;47923;42.506;24.192;2023-12-28T10:40:21;96428.88;;;21.16;22.78
61961;BME280;47923;42.506;24.192;2023-12-28T10:42:52;96452.66;;;21.85;23.53
61961;BME280;47923;42.506;24.192;2023-12-28T10:45:19;96443.75;;;22.49;23.33
61961;BME280;47923;42.506;24.192;2023-12-28T10:48:10;96400.31;;;22.91;21.58
61961;BME280;47923;42.506;24.192;2023-12-28T10:50:40;96352.69;;;21.65;22.54
61961;BME280;47923;42.506;24.192;2023-12-28T10:53:49;96434.75;;;21.70;23.44
61961;BME280;47923;42.506;24.192;2023-12-28T10:56:29;96440.19;;;21.25;23.10
61961;BME280;47923;42.506;24.192;2023-12-28T10:59:05;96407.88;;;20.88;23.74
61961;BME280;47923;42.506;24.192;2023-12-28T11:01:37;96423.03;;;21.10;23.15
61961;BME280;47923;42.506;24.192;2023-12-28T11:04:13;96364.22;;;22.24;22.11
61961;BME280;47923;42.506;24.192;2023-12-28T11:06:42;96407.47;;;23.39;21.26
61961;BME280;47923;42.506;24.192;2023-12-28T11:09:09;96378.94;;;22.99;20.82
61961;BME280;47923;42.506;24.192;2023-12-28T11:11:36;96368.47;;;22.90;21.35
61961;BME280;47923;42.506;24.192;2023-12-28T11:14:03;96270.09;;;22.64;21.24
61961;BME280;47923;42.506;24.192;2023-12-28T11:16:29;96390.41;;;23.21;21.22
61961;BME280;47923;42.506;24.192;2023-12-28T11:18:56;96382.41;;;22.76;21.61
61961;BME280;47923;42.506;24.192;2023-12-28T11:21:23;96316.22;;;21.57;21.48
61961;BME280;47923;42.506;24.192;2023-12-28T11:23:49;96375.16;;;21.56;22.24
61961;BME280;47923;42.506;24.192;2023-12-28T11:26:21;96367.31;;;21.55;21.77
61961;BME280;47923;42.506;24.192;2023-12-28T11:28:47;96343.94;;;21.36;21.70
61961;BME280;47923;42.506;24.192;2023-12-28T11:31:17;96367.81;;;20.94;21.95
61961;BME280;47923;42.506;24.192;2023-12-28T11:33:47;96236.63;;;20.01;22.36
61961;BME280;47923;42.506;24.192;2023-12-28T11:36:24;96334.97;;;20.76;22.65
61961;BME280;47923;42.506;24.192;2023-12-28T11:38:53;96363.97;;;20.81;21.96
61961;BME280;47923;42.506;24.192;2023-12-28T11:41:24;96204.59;;;20.91;21.97
61961;BME280;47923;42.506;24.192;2023-12-28T11:43:54;96344.91;;;22.28;20.72
61961;BME280;47923;42.506;24.192;2023-12-28T11:46:21;96321.94;;;22.11;21.26
61961;BME280;47923;42.506;24.192;2023-12-28T11:48:46;96341.81;;;21.54;21.48
61961;BME280;47923;42.506;24.192;2023-12-28T11:51:12;96211.41;;;20.76;21.82
61961;BME280;47923;42.506;24.192;2023-12-28T11:53:38;96220.44;;;20.18;21.28
61961;BME280;47923;42.506;24.192;2023-12-28T11:56:03;96328.38;;;21.15;22.12
61961;BME280;47923;42.506;24.192;2023-12-28T11:58:30;96322.09;;;21.59;22.86
61961;BME280;47923;42.506;24.192;2023-12-28T12:00:56;96273.53;;;20.56;24.03
61961;BME280;47923;42.506;24.192;2023-12-28T12:03:24;96310.47;;;20.44;24.45
61961;BME280;47923;42.506;24.192;2023-12-28T12:05:50;96262.66;;;19.57;25.61
61961;BME280;47923;42.506;24.192;2023-12-28T12:08:15;96193.97;;;18.88;25.61
61961;BME280;47923;42.506;24.192;2023-12-28T12:10:41;96316.72;;;19.36;25.99
61961;BME280;47923;42.506;24.192;2023-12-28T12:13:07;96331.22;;;18.72;27.00
61961;BME280;47923;42.506;24.192;2023-12-28T12:15:33;96322.91;;;18.26;27.97
61961;BME280;47923;42.506;24.192;2023-12-28T12:18:00;96320.44;;;17.92;28.37
61961;BME280;47923;42.506;24.192;2023-12-28T12:20:26;96320.84;;;17.94;28.55
61961;BME280;47923;42.506;24.192;2023-12-28T12:22:51;96327.31;;;17.68;29.20
61961;BME280;47923;42.506;24.192;2023-12-28T12:25:17;96322.56;;;17.51;29.61
61961;BME280;47923;42.506;24.192;2023-12-28T12:27:45;96326.34;;;17.32;29.58
61961;BME280;47923;42.506;24.192;2023-12-28T12:30:10;96233.22;;;16.38;29.99
61961;BME280;47923;42.506;24.192;2023-12-28T12:32:36;96307.06;;;16.63;30.68
61961;BME280;47923;42.506;24.192;2023-12-28T12:35:09;96213.75;;;15.95;31.14
61961;BME280;47923;42.506;24.192;2023-12-28T12:37:35;96313.59;;;16.51;31.25
61961;BME280;47923;42.506;24.192;2023-12-28T12:40:02;96332.34;;;16.56;31.46
61961;BME280;47923;42.506;24.192;2023-12-28T12:42:27;96167.53;;;15.35;31.27
61961;BME280;47923;42.506;24.192;2023-12-28T12:44:53;96332.13;;;16.31;31.41
61961;BME280;47923;42.506;24.192;2023-12-28T12:47:18;96268.66;;;15.63;32.13
61961;BME280;47923;42.506;24.192;2023-12-28T12:49:43;96309.94;;;15.65;32.54